Time;durP1;ratioP1;P1;durP2;ratioP2;P2;SDS_P1;SDS_P2;PMS_P1;PMS_P2;Temp;Humidity;BMP_temperature;BMP_pressure;BME280_temperature;BME280_humidity;BME280_pressure;Samples;Min_cycle;Max_cycle;Signal;HPM_P1;HPM_P2
2022/09/04 00:00:06;;;;;;;5.82;2.60;;;17.80;76.20;;;;;;5074023;28;20044;-61
2022/09/04 00:03:07;;;;;;;7.78;2.58;;;17.90;75.90;;;;;;5073756;28;20135;-61
2022/09/04 00:05:36;;;;;;;5.20;2.60;;;17.90;78.80;;;;;;5051379;28;20180;-61
2022/09/04 00:08:22;;;;;;;9.32;2.65;;;17.40;77.00;;;;;;5051626;28;20056;-61
2022/09/04 00:11:06;;;;;;;4.85;2.50;;;17.50;79.90;;;;;;5051602;28;20598;-62
2022/09/04 00:13:51;;;;;;;6.70;2.38;;;17.50;67.00;;;;;;5051637;28;20044;-61
2022/09/04 00:16:41;;;;;;;7.68;2.65;;;17.40;76.90;;;;;;5051469;28;20435;-62
2022/09/04 00:19:18;;;;;;;4.30;2.70;;;17.50;67.30;;;;;;5034905;28;20084;-61
2022/09/04 00:21:56;;;;;;;8.27;2.85;;;17.50;77.40;;;;;;5051661;28;20478;-61
2022/09/04 00:24:27;;;;;;;10.48;2.92;;;17.40;77.90;;;;;;5051369;28;20071;-61
2022/09/04 00:27:16;;;;;;;5.25;2.72;;;17.50;78.10;;;;;;5051442;28;20040;-62
2022/09/04 00:30:06;;;;;;;4.35;2.50;;;17.40;68.20;;;;;;5034573;28;20070;-61
2022/09/04 00:32:50;;;;;;;7.03;2.60;;;17.50;77.90;;;;;;5051260;28;20047;-62
2022/09/04 00:35:35;;;;;;;9.18;2.75;;;17.80;78.40;;;;;;5051118;28;20559;-61
2022/09/04 00:38:38;;;;;;;7.50;2.53;;;16.90;79.00;;;;;;5034800;28;20041;-62
2022/09/04 00:41:27;;;;;;;4.85;2.60;;;17.30;69.00;;;;;;5061394;28;20048;-62
2022/09/04 00:44:20;;;;;;;6.10;2.45;;;17.40;78.80;;;;;;5072687;28;20040;-62
2022/09/04 00:46:46;;;;;;;7.80;3.17;;;;;;;;;;5073286;28;20044;-62
2022/09/04 00:49:30;;;;;;;7.25;2.50;;;17.20;79.00;;;;;;5073425;28;20055;-62
2022/09/04 00:52:22;;;;;;;5.68;2.67;;;17.70;74.10;;;;;;5073136;28;20139;-61
2022/09/04 00:55:11;;;;;;;4.72;2.67;;;17.00;69.00;;;;;;5073273;28;20052;-62
2022/09/04 00:58:06;;;;;;;8.32;2.83;;;16.50;80.10;;;;;;5073343;28;20040;-62
2022/09/04 01:00:31;;;;;;;5.75;2.50;;;16.90;84.70;;;;;;5072544;28;20048;-61
2022/09/04 01:03:06;;;;;;;7.63;2.53;;;17.20;85.10;;;;;;5072857;28;20056;-61
2022/09/04 01:06:09;;;;;;;10.88;2.60;;;16.90;85.20;;;;;;5072526;28;20131;-62
2022/09/04 01:08:56;;;;;;;6.72;3.00;;;17.00;81.00;;;;;;5072900;28;20043;-61
2022/09/04 01:11:37;;;;;;;6.93;2.72;;;17.00;81.30;;;;;;5073213;28;20094;-61
2022/09/04 01:14:33;;;;;;;4.53;2.50;;;16.00;73.50;;;;;;5073031;28;20071;-61
2022/09/04 01:17:15;;;;;;;10.07;2.72;;;16.80;81.30;;;;;;5073093;28;20115;-62
2022/09/04 01:20:19;;;;;;;8.88;2.78;;;16.70;85.70;;;;;;5073156;28;20429;-61
2022/09/04 01:23:15;;;;;;;7.68;2.80;;;16.80;71.60;;;;;;5072775;28;20500;-62
2022/09/04 01:25:41;;;;;;;10.73;2.53;;;;;;;;;;5072800;28;20051;-59
2022/09/04 01:28:31;;;;;;;5.63;2.80;;;16.40;86.70;;;;;;5072835;28;20041;-59
2022/09/04 01:31:03;;;;;;;7.00;2.70;;;16.50;87.10;;;;;;5073051;28;20422;-59
2022/09/04 01:33:53;;;;;;;5.57;2.60;;;16.60;87.50;;;;;;5072945;28;20124;-59
2022/09/04 01:36:41;;;;;;;16.10;2.80;;;16.60;83.10;;;;;;5072780;28;20083;-59
2022/09/04 01:39:07;;;;;;;5.10;2.72;;;16.40;88.10;;;;;;5073004;28;20419;-59
2022/09/04 01:41:48;;;;;;;6.28;2.70;;;16.50;88.80;;;;;;5072834;28;20086;-59
2022/09/04 01:44:14;;;;;;;8.10;2.70;;;16.50;83.40;;;;;;5072460;28;20040;-59
2022/09/04 01:46:48;;;;;;;5.93;2.78;;;16.40;73.00;;;;;;5071250;28;20071;-59
2022/09/04 01:49:37;;;;;;;4.10;2.55;;;16.30;88.90;;;;;;5072493;28;20044;-59
2022/09/04 01:52:12;;;;;;;8.93;2.80;;;16.30;89.10;;;;;;5072607;28;20132;-59
2022/09/04 01:55:02;;;;;;;6.60;2.72;;;16.40;77.80;;;;;;5073537;28;20043;-59
2022/09/04 01:57:57;;;;;;;7.75;3.00;;;16.30;74.00;;;;;;5076658;28;20074;-59
2022/09/04 02:00:24;;;;;;;5.00;2.80;;;16.20;89.90;;;;;;5076159;28;20487;-59
2022/09/04 02:03:09;;;;;;;9.30;2.95;;;16.40;77.30;;;;;;5075802;28;20052;-59
2022/09/04 02:06:00;;;;;;;9.18;2.88;;;16.80;75.70;;;;;;5076265;28;20079;-59
2022/09/04 02:08:46;;;;;;;17.80;3.40;;;16.10;90.40;;;;;;5076080;28;20135;-59
2022/09/04 02:11:27;;;;;;;6.32;3.15;;;16.10;90.40;;;;;;5076206;28;20044;-59
2022/09/04 02:14:08;;;;;;;5.97;2.90;;;15.80;85.10;;;;;;5076247;28;20357;-59
2022/09/04 02:16:44;;;;;;;5.95;2.80;;;15.90;86.40;;;;;;5075964;28;20055;-59
2022/09/04 02:19:31;;;;;;;7.03;3.20;;;16.20;91.00;;;;;;5076036;28;20043;-59
2022/09/04 02:22:13;;;;;;;10.05;2.88;;;16.00;91.50;;;;;;5076083;28;20047;-59
2022/09/04 02:25:16;;;;;;;5.93;2.70;;;16.00;91.20;;;;;;5058031;28;20428;-59
2022/09/04 02:28:03;;;;;;;7.28;2.70;;;16.00;76.80;;;;;;5075654;28;20045;-59
2022/09/04 02:30:39;;;;;;;6.55;2.88;;;16.00;91.30;;;;;;5075821;28;20044;-59
2022/09/04 02:33:47;;;;;;;5.10;2.72;;;16.00;91.90;;;;;;5075764;28;20046;-60
2022/09/04 02:36:37;;;;;;;4.10;2.90;;;15.90;91.40;;;;;;5072497;28;20128;-61
2022/09/04 02:39:28;;;;;;;7.13;2.85;;;15.80;91.40;;;;;;5075704;28;20126;-63
2022/09/04 02:42:10;;;;;;;9.30;3.00;;;15.90;92.00;;;;;;5074400;28;20503;-61
2022/09/04 02:45:17;;;;;;;3.53;2.47;;;15.80;78.40;;;;;;5075617;28;20400;-62
2022/09/04 02:47:56;;;;;;;;;;;15.80;79.20;;;;;;5053658;28;20080;-62
2022/09/04 02:50:46;;;;;;;7.45;2.90;;;16.00;87.40;;;;;;5053125;28;19924;-61
2022/09/04 02:53:33;;;;;;;7.53;2.97;;;15.70;79.10;;;;;;5053080;28;20546;-61
2022/09/04 02:56:10;;;;;;;12.95;3.10;;;15.50;92.70;;;;;;5053065;28;20103;-62
2022/09/04 02:58:56;;;;;;;6.68;3.08;;;15.80;81.80;;;;;;5053018;28;20045;-62
2022/09/04 03:01:31;;;;;;;;;;;15.70;80.90;;;;;;5053035;28;20057;-62
2022/09/04 03:04:11;;;;;;;8.63;2.92;;;15.80;93.60;;;;;;5052879;28;20364;-61
2022/09/04 03:06:49;;;;;;;7.78;2.90;;;15.60;93.00;;;;;;5036076;28;20056;-61
2022/09/04 03:09:28;;;;;;;6.32;2.80;;;16.20;93.80;;;;;;5036334;28;20397;-62
2022/09/04 03:12:13;;;;;;;5.35;2.70;;;16.40;94.00;;;;;;5052764;28;20051;-62
2022/09/04 03:14:47;;;;;;;7.75;2.97;;;15.50;94.20;;;;;;5052680;28;20508;-62
2022/09/04 03:18:03;;;;;;;8.10;2.95;;;15.40;94.30;;;;;;5052640;28;20049;-61
2022/09/04 03:20:36;;;;;;;7.18;2.78;;;15.30;94.50;;;;;;5012978;28;20084;-61
2022/09/04 03:23:05;;;;;;;7.68;3.22;;;14.80;95.10;;;;;;4996650;28;20188;-61
2022/09/04 03:25:31;;;;;;;9.15;3.15;;;;;;;;;;5012724;28;20276;-61
2022/09/04 03:27:59;;;;;;;6.60;3.33;;;16.00;95.40;;;;;;5012802;28;20042;-61
2022/09/04 03:30:25;;;;;;;4.85;3.30;;;;;;;;;;5012475;28;20509;-61
2022/09/04 03:33:16;;;;;;;5.68;3.17;;;15.30;95.50;;;;;;5012688;28;20038;-61
2022/09/04 03:36:14;;;;;;;6.78;3.15;;;14.70;85.20;;;;;;5010986;28;20405;-61
2022/09/04 03:39:08;;;;;;;8.23;3.00;;;14.70;95.70;;;;;;5002273;28;20140;-61
2022/09/04 03:41:48;;;;;;;8.82;3.10;;;15.20;96.00;;;;;;5012523;28;20045;-62
2022/09/04 03:44:14;;;;;;;9.25;3.28;;;;;;;;;;5012516;28;20077;-61
2022/09/04 03:46:40;;;;;;;8.35;3.33;;;15.10;96.40;;;;;;5012323;28;20514;-61
2022/09/04 03:49:15;;;;;;;7.38;3.60;;;15.10;97.10;;;;;;5012191;28;20078;-62
2022/09/04 03:52:08;;;;;;;10.10;3.75;;;14.70;96.80;;;;;;5012329;28;20038;-61
2022/09/04 03:54:34;;;;;;;10.02;3.42;;;15.40;97.20;;;;;;5012873;28;20034;-61
2022/09/04 03:57:36;;;;;;;10.57;3.40;;;14.50;96.40;;;;;;5073953;28;20086;-58
2022/09/04 04:00:18;;;;;;;7.68;3.40;;;16.00;93.30;;;;;;5073969;28;20044;-58
2022/09/04 04:02:59;;;;;;;7.38;3.33;;;14.80;97.90;;;;;;5072412;28;20060;-58
2022/09/04 04:05:37;;;;;;;5.55;3.30;;;14.80;90.30;;;;;;5074012;28;20134;-61
2022/09/04 04:08:31;;;;;;;6.82;3.60;;;14.70;98.60;;;;;;5073944;28;20040;-61
2022/09/04 04:11:04;;;;;;;6.28;3.63;;;14.60;98.90;;;;;;5073719;28;20040;-61
2022/09/04 04:13:48;;;;;;;5.97;3.70;;;14.80;90.90;;;;;;5074221;28;20047;-61
2022/09/04 04:16:20;;;;;;;7.35;3.63;;;14.70;91.00;;;;;;5072296;28;20040;-58
2022/09/04 04:19:16;;;;;;;6.25;3.60;;;14.70;98.40;;;;;;5072995;28;20549;-58
2022/09/04 04:22:04;;;;;;;10.73;3.70;;;14.70;91.40;;;;;;5073800;28;20131;-58
2022/09/04 04:25:07;;;;;;;7.68;3.85;;;14.80;98.50;;;;;;5073386;28;20514;-59
2022/09/04 04:28:00;;;;;;;11.55;3.90;;;15.60;99.90;;;;;;5073396;28;20059;-58
2022/09/04 04:30:33;;;;;;;13.25;3.90;;;14.60;92.10;;;;;;5073381;28;20484;-58
2022/09/04 04:33:36;;;;;;;10.32;4.05;;;14.70;99.90;;;;;;5073195;28;20046;-58
2022/09/04 04:36:47;;;;;;;11.93;3.88;;;14.90;99.90;;;;;;5073507;28;20123;-58
2022/09/04 04:39:13;;;;;;;8.07;3.60;;;;;;;;;;5051093;28;20072;-58
2022/09/04 04:42:05;;;;;;;8.48;3.88;;;14.60;99.90;;;;;;5051136;28;20040;-58
2022/09/04 04:47:26;;;;;;;6.43;4.07;;;14.10;93.60;;;;;;5050918;28;20484;-58
2022/09/04 04:50:31;;;;;;;10.07;4.00;;;14.60;99.90;;;;;;5051008;28;20081;-59
2022/09/04 04:53:14;;;;;;;7.95;4.03;;;14.50;94.70;;;;;;5034219;28;20430;-59
2022/09/04 04:55:54;;;;;;;8.70;4.28;;;13.90;99.90;;;;;;5050904;28;20090;-58
2022/09/04 04:58:48;;;;;;;11.73;4.00;;;14.60;93.50;;;;;;5050955;28;20041;-58
2022/09/04 05:01:43;;;;;;;9.07;4.38;;;15.40;99.90;;;;;;5050625;28;20187;-58
2022/09/04 05:04:46;;;;;;;8.93;4.00;;;14.60;99.90;;;;;;5034167;28;20118;-58
2022/09/04 05:07:13;;;;;;;8.00;4.05;;;;;;;;;;5035201;28;20142;-58
2022/09/04 05:10:11;;;;;;;10.23;4.22;;;14.80;99.60;;;;;;5050576;28;20057;-58
2022/09/04 05:12:52;;;;;;;6.55;3.88;;;14.60;99.90;;;;;;5017909;28;20566;-58
2022/09/04 05:15:39;;;;;;;16.98;4.20;;;14.60;94.00;;;;;;5056701;28;20057;-59
2022/09/04 05:18:21;;;;;;;7.60;4.10;;;15.70;99.90;;;;;;5073073;28;20044;-59
2022/09/04 05:20:55;;;;;;;11.32;4.10;;;15.80;99.90;;;;;;5072721;28;20559;-59
2022/09/04 05:23:58;;;;;;;11.93;4.43;;;13.50;99.90;;;;;;5072693;28;20048;-63
2022/09/04 05:26:34;;;;;;;10.70;4.18;;;14.80;95.40;;;;;;5072731;28;20044;-59
2022/09/04 05:29:12;;;;;;;10.80;3.80;;;15.00;99.90;;;;;;5073291;28;20158;-59
2022/09/04 05:31:56;;;;;;;7.50;3.95;;;15.20;99.90;;;;;;5076845;28;20129;-63
2022/09/04 05:34:57;;;;;;;7.75;4.40;;;14.00;99.90;;;;;;5076849;28;20037;-60
2022/09/04 05:37:31;;;;;;;6.38;3.85;;;15.40;94.30;;;;;;5054423;28;20053;-60
2022/09/04 05:40:00;;;;;;;11.65;3.83;;;16.20;99.50;;;;;;5054517;28;20037;-59
2022/09/04 05:43:01;;;;;;;11.90;3.78;;;16.50;96.20;;;;;;5054321;28;20395;-59
2022/09/04 05:45:46;;;;;;;10.35;3.60;;;17.10;93.40;;;;;;5054248;28;20057;-60
2022/09/04 05:48:43;;;;;;;8.90;3.80;;;17.80;93.50;;;;;;5054199;28;20127;-59
2022/09/04 05:51:48;;;;;;;8.32;3.65;;;18.50;92.60;;;;;;5041087;28;20076;-60
2022/09/04 05:54:35;;;;;;;10.57;3.50;;;18.80;91.10;;;;;;5053895;28;20375;-60
2022/09/04 05:57:39;;;;;;;13.65;3.95;;;19.00;90.00;;;;;;5052932;28;20329;-60
2022/09/04 06:00:17;;;;;;;8.68;3.95;;;19.60;88.30;;;;;;4955838;29;20055;-59
2022/09/04 06:02:54;;;;;;;9.85;3.58;;;20.20;85.50;;;;;;4955566;29;20466;-60
2022/09/04 06:05:59;;;;;;;6.30;3.50;;;20.60;84.70;;;;;;4955888;29;20047;-60
2022/09/04 06:09:09;;;;;;;11.07;4.15;;;20.90;81.30;;;;;;4926436;29;20054;-62
2022/09/04 06:11:57;;;;;;;7.32;3.72;;;21.10;80.80;;;;;;4917614;29;20412;-63
2022/09/04 06:14:55;;;;;;;9.38;3.60;;;21.60;80.90;;;;;;4913571;29;20051;-62
2022/09/04 06:18:09;;;;;;;9.20;3.40;;;21.40;77.10;;;;;;4916326;29;20055;-63
2022/09/04 06:21:05;;;;;;;7.32;3.50;;;22.10;75.80;;;;;;4915496;29;20135;-62
2022/09/04 06:23:40;;;;;;;6.43;3.30;;;22.50;74.10;;;;;;4915991;29;20054;-62
2022/09/04 06:26:36;;;;;;;10.88;3.72;;;22.50;64.60;;;;;;4916141;29;20052;-62
2022/09/04 06:29:17;;;;;;;6.78;3.42;;;22.70;72.90;;;;;;4916301;29;20048;-62
2022/09/04 06:32:30;;;;;;;7.85;3.30;;;23.20;70.20;;;;;;4916087;29;20052;-62
2022/09/04 06:35:08;;;;;;;9.52;3.70;;;23.10;70.40;;;;;;4915113;29;20390;-62
2022/09/04 06:37:54;;;;;;;9.65;3.90;;;23.10;60.50;;;;;;4986976;28;20069;-62
2022/09/04 06:40:40;;;;;;;7.13;3.40;;;22.90;61.20;;;;;;4992560;28;20038;-62
2022/09/04 06:43:37;;;;;;;8.35;3.40;;;23.10;72.70;;;;;;5037624;28;20044;-63
2022/09/04 06:46:21;;;;;;;6.00;3.17;;;23.50;69.30;;;;;;5054479;28;20505;-63
2022/09/04 06:49:01;;;;;;;6.70;3.20;;;23.70;70.30;;;;;;5054419;28;20115;-63
2022/09/04 06:51:30;;;;;;;8.65;3.42;;;24.80;67.30;;;;;;5055223;28;20094;-62
2022/09/04 06:54:18;;;;;;;6.95;3.40;;;24.20;71.50;;;;;;5074415;28;20142;-63
2022/09/04 06:56:58;;;;;;;9.85;3.38;;;24.90;67.50;;;;;;5073036;28;20036;-60
2022/09/04 06:59:41;;;;;;;8.60;3.33;;;25.20;70.20;;;;;;5073335;28;20047;-60
2022/09/04 07:02:30;;;;;;;5.88;3.17;;;25.60;64.20;;;;;;5073013;28;20524;-60
2022/09/04 07:05:21;;;;;;;8.70;3.10;;;26.80;62.20;;;;;;5073490;28;20045;-60
2022/09/04 07:08:28;;;;;;;14.25;3.72;;;26.70;61.70;;;;;;5074323;28;20044;-57
2022/09/04 07:11:19;;;;;;;7.95;3.20;;;27.30;60.90;;;;;;5066856;28;20515;-59
2022/09/04 07:14:03;;;;;;;4.70;2.92;;;28.10;59.60;;;;;;5075049;28;20147;-57
2022/09/04 07:16:40;;;;;;;9.25;3.25;;;27.70;58.20;;;;;;5074765;28;20072;-60
2022/09/04 07:19:15;;;;;;;8.75;3.28;;;27.80;60.00;;;;;;5074706;28;20496;-60
2022/09/04 07:21:57;;;;;;;8.95;3.00;;;28.10;49.90;;;;;;5074750;28;20056;-60
2022/09/04 07:25:11;;;;;;;8.85;3.15;;;28.50;49.10;;;;;;5074815;28;20044;-60
2022/09/04 07:28:17;;;;;;;4.65;3.28;;;28.90;48.00;;;;;;5073220;28;20113;-60
2022/09/04 07:30:57;;;;;;;9.57;4.00;;;29.10;55.40;;;;;;5074768;28;20047;-60
2022/09/04 07:34:08;;;;;;;6.57;2.75;;;29.20;47.30;;;;;;5074791;28;20051;-60
2022/09/04 07:36:34;;;;;;;6.57;3.00;;;29.50;54.90;;;;;;5074651;28;20090;-60
2022/09/04 07:39:27;;;;;;;8.10;2.85;;;29.70;46.40;;;;;;5074449;28;20483;-60
2022/09/04 07:42:31;;;;;;;13.27;3.20;;;30.10;53.10;;;;;;5070255;28;20048;-60
2022/09/04 07:45:28;;;;;;;8.13;3.28;;;31.50;55.70;;;;;;5073190;28;20049;-60
2022/09/04 07:48:35;;;;;;;6.80;2.83;;;30.10;51.40;;;;;;5073093;28;20453;-60
2022/09/04 07:51:08;;;;;;;5.90;2.90;;;30.90;44.70;;;;;;5072653;28;20036;-60
2022/09/04 07:54:11;;;;;;;7.38;2.80;;;31.60;52.10;;;;;;5072234;28;20361;-61
2022/09/04 07:57:13;;;;;;;5.20;2.88;;;30.90;53.60;;;;;;5073948;28;20123;-60
2022/09/04 08:00:00;;;;;;;7.38;2.90;;;31.00;43.50;;;;;;5074228;28;20116;-60
2022/09/04 08:03:10;;;;;;;5.63;2.75;;;30.10;52.70;;;;;;5074051;28;20109;-60
2022/09/04 08:05:55;;;;;;;6.35;2.70;;;29.00;53.10;;;;;;5069117;28;20052;-60
2022/09/04 08:08:29;;;;;;;4.43;2.70;;;29.30;46.30;;;;;;5073813;28;20044;-60
2022/09/04 08:11:01;;;;;;;9.13;2.70;;;28.70;47.40;;;;;;5073696;28;20078;-60
2022/09/04 08:13:34;;;;;;;6.60;2.72;;;28.70;57.40;;;;;;5073975;28;20032;-60
2022/09/04 08:16:08;;;;;;;4.78;2.45;;;28.10;49.20;;;;;;5073448;28;20449;-60
2022/09/04 08:19:01;;;;;;;6.60;2.90;;;27.90;50.10;;;;;;5072572;28;20051;-59
2022/09/04 08:21:46;;;;;;;8.68;2.60;;;27.70;50.40;;;;;;5073444;28;20051;-60
2022/09/04 08:24:51;;;;;;;7.40;2.53;;;27.00;51.30;;;;;;5073296;28;20054;-60
2022/09/04 08:27:55;;;;;;;6.47;3.00;;;26.80;52.10;;;;;;5073405;28;20040;-60
2022/09/04 08:30:21;;;;;;;3.90;2.63;;;26.80;52.10;;;;;;5051071;28;20120;-59
2022/09/04 08:33:02;;;;;;;7.60;2.45;;;27.00;61.60;;;;;;5051138;28;20052;-60
2022/09/04 08:36:11;;;;;;;7.05;2.90;;;26.90;52.80;;;;;;5051214;28;20041;-60
2022/09/04 08:38:46;;;;;;;3.90;2.30;;;26.70;59.40;;;;;;4991903;28;20133;-60
2022/09/04 08:41:32;;;;;;;9.18;2.42;;;26.90;52.20;;;;;;4975532;28;20057;-60
2022/09/04 08:43:58;;;;;;;4.28;2.70;;;26.60;60.60;;;;;;4991839;28;20046;-59
2022/09/04 08:46:51;;;;;;;5.75;2.60;;;26.80;64.40;;;;;;4991643;28;20058;-59
2022/09/04 08:49:52;;;;;;;8.93;2.50;;;25.90;61.10;;;;;;4978506;28;20061;-59
2022/09/04 08:52:39;;;;;;;8.65;2.65;;;26.40;53.60;;;;;;4991706;28;20402;-59
2022/09/04 08:55:46;;;;;;;8.55;2.40;;;26.60;53.80;;;;;;4975357;28;20163;-60
2022/09/04 08:59:00;;;;;;;6.43;2.50;;;26.90;62.10;;;;;;4914765;29;20044;-57
2022/09/04 09:02:02;;;;;;;6.50;2.50;;;27.00;52.90;;;;;;4938831;29;20059;-57
2022/09/04 09:04:42;;;;;;;4.63;2.47;;;26.60;55.50;;;;;;4952548;28;20047;-57
2022/09/04 09:07:39;;;;;;;5.18;2.47;;;26.60;61.20;;;;;;4952695;28;20052;-57
2022/09/04 09:10:33;;;;;;;9.23;2.60;;;26.40;53.60;;;;;;4952741;28;20043;-57
2022/09/04 09:13:14;;;;;;;5.60;2.50;;;26.40;54.00;;;;;;4955263;28;20043;-57
2022/09/04 09:15:51;;;;;;;4.75;2.53;;;26.40;54.20;;;;;;5011117;28;20046;-59
2022/09/04 09:18:40;;;;;;;5.43;2.50;;;26.10;54.80;;;;;;5010881;28;20088;-57
2022/09/04 09:21:42;;;;;;;4.15;2.83;;;25.90;55.60;;;;;;5011065;28;20091;-57
2022/09/04 09:24:22;;;;;;;5.22;2.60;;;25.80;66.30;;;;;;5010981;28;20045;-57
2022/09/04 09:27:35;;;;;;;5.15;2.40;;;25.70;55.80;;;;;;5010752;28;20064;-56
2022/09/04 09:30:05;;;;;;;8.85;2.50;;;25.60;56.50;;;;;;5010931;28;20481;-59
2022/09/04 09:32:59;;;;;;;6.40;2.70;;;25.50;63.40;;;;;;5044996;28;20057;-59
2022/09/04 09:35:31;;;;;;;8.23;2.53;;;25.60;65.10;;;;;;5072882;28;20041;-63
2022/09/04 09:38:07;;;;;;;7.50;2.88;;;26.00;65.20;;;;;;5072933;28;20143;-64
2022/09/04 09:41:11;;;;;;;3.63;2.40;;;25.40;56.70;;;;;;5073003;28;20036;-64
2022/09/04 09:43:59;;;;;;;4.05;2.58;;;25.30;57.00;;;;;;5072901;28;20036;-64
2022/09/04 09:47:00;;;;;;;4.25;2.30;;;25.30;57.20;;;;;;5072653;28;20365;-57
2022/09/04 09:49:56;;;;;;;6.35;2.60;;;25.70;66.90;;;;;;5072887;28;20098;-58
2022/09/04 09:53:19;;;;;;;9.05;2.88;;;25.60;57.10;;;;;;5072657;28;20045;-58
2022/09/04 09:56:21;;;;;;;6.05;2.50;;;26.20;65.30;;;;;;5050197;28;20044;-58
2022/09/04 09:59:05;;;;;;;7.05;2.70;;;25.00;64.80;;;;;;5050350;28;20091;-57
2022/09/04 10:01:56;;;;;;;4.05;2.50;;;25.40;57.70;;;;;;5050027;28;20059;-58
2022/09/04 10:05:02;;;;;;;6.05;2.35;;;25.60;57.50;;;;;;5033660;28;20107;-58
2022/09/04 10:07:42;;;;;;;5.63;2.30;;;25.70;57.50;;;;;;5049257;28;20508;-57
2022/09/04 10:10:28;;;;;;;8.32;2.70;;;25.80;57.40;;;;;;5050159;28;20439;-58
2022/09/04 10:13:03;;;;;;;7.20;2.45;;;25.80;66.10;;;;;;5050146;28;20535;-58
2022/09/04 10:15:47;;;;;;;6.25;2.28;;;25.90;68.50;;;;;;5051157;28;20505;-58
2022/09/04 10:18:49;;;;;;;5.90;2.50;;;25.90;66.30;;;;;;5053853;28;20453;-58
2022/09/04 10:21:40;;;;;;;3.47;2.30;;;25.90;57.60;;;;;;5053743;28;20041;-58
2022/09/04 10:24:14;;;;;;;6.25;2.40;;;26.00;57.60;;;;;;5053638;28;20528;-57
2022/09/04 10:26:49;;;;;;;5.30;2.60;;;26.10;64.60;;;;;;5068884;28;20053;-58
2022/09/04 10:29:18;;;;;;;3.55;2.13;;;26.10;57.30;;;;;;5075456;28;20040;-58
2022/09/04 10:31:56;;;;;;;3.85;2.20;;;26.70;65.90;;;;;;5075558;28;20507;-58
2022/09/04 10:34:46;;;;;;;3.80;2.13;;;26.50;57.40;;;;;;5074781;28;20048;-58
2022/09/04 10:37:39;;;;;;;5.50;2.40;;;26.70;56.80;;;;;;5075786;28;20055;-58
2022/09/04 10:40:42;;;;;;;6.28;2.63;;;26.80;56.60;;;;;;5073967;28;20068;-58
2022/09/04 10:44:00;;;;;;;7.40;2.33;;;26.90;56.30;;;;;;5043254;28;20053;-58
2022/09/04 10:47:01;;;;;;;4.05;2.35;;;26.80;56.40;;;;;;4998854;28;20061;-58
2022/09/04 10:49:55;;;;;;;6.28;2.55;;;26.80;56.90;;;;;;5053905;28;20539;-58
2022/09/04 10:52:47;;;;;;;9.90;2.35;;;26.90;59.80;;;;;;5055367;28;20052;-59
2022/09/04 10:55:22;;;;;;;4.30;2.28;;;27.00;56.80;;;;;;5054901;28;20045;-61
2022/09/04 10:58:02;;;;;;;3.78;2.22;;;27.20;56.80;;;;;;5055138;28;20044;-62
2022/09/04 11:00:52;;;;;;;6.68;2.28;;;27.10;56.50;;;;;;5054763;28;20488;-61
2022/09/04 11:03:24;;;;;;;7.78;2.60;;;27.50;56.40;;;;;;5053112;28;20065;-59
2022/09/04 11:06:30;;;;;;;3.78;2.22;;;28.00;64.00;;;;;;5070399;28;20055;-59
2022/09/04 11:09:02;;;;;;;4.65;2.22;;;27.60;56.40;;;;;;5073609;28;20128;-61
2022/09/04 11:11:52;;;;;;;4.18;2.05;;;27.70;57.30;;;;;;5073476;28;20072;-59
2022/09/04 11:14:36;;;;;;;5.75;2.15;;;27.70;63.10;;;;;;5073638;28;20055;-59
2022/09/04 11:17:20;;;;;;;4.18;2.28;;;27.60;56.80;;;;;;5073701;28;20053;-59
2022/09/04 11:20:22;;;;;;;4.07;2.30;;;27.70;56.60;;;;;;5053741;28;20048;-60
2022/09/04 11:22:54;;;;;;;6.20;2.13;;;27.80;57.30;;;;;;5053819;28;20033;-59
2022/09/04 11:25:52;;;;;;;7.10;2.10;;;27.80;57.40;;;;;;5053455;28;20120;-59
2022/09/04 11:28:43;;;;;;;4.10;2.25;;;28.50;62.60;;;;;;5053840;28;20059;-59
2022/09/04 11:31:19;;;;;;;10.82;2.30;;;28.10;63.50;;;;;;5073574;28;20036;-58
2022/09/04 11:34:05;;;;;;;3.45;2.28;;;28.00;56.50;;;;;;5073462;28;20044;-59
2022/09/04 11:37:07;;;;;;;7.85;2.25;;;28.10;56.30;;;;;;5052009;28;20052;-58
2022/09/04 11:39:51;;;;;;;5.38;2.40;;;28.00;56.20;;;;;;5054057;28;20040;-58
2022/09/04 11:42:25;;;;;;;3.63;2.20;;;28.10;56.20;;;;;;5054087;28;20036;-58
2022/09/04 11:45:28;;;;;;;8.50;2.20;;;28.10;56.30;;;;;;5054737;28;20033;-58
2022/09/04 11:48:15;;;;;;;3.10;2.05;;;28.10;56.10;;;;;;5054120;28;20041;-58
2022/09/04 11:50:49;;;;;;;3.40;1.90;;;28.10;56.50;;;;;;5054496;28;20056;-57
2022/09/04 11:53:33;;;;;;;8.70;2.13;;;28.90;62.20;;;;;;5067764;28;20045;-59
2022/09/04 11:56:37;;;;;;;4.55;2.40;;;28.30;56.40;;;;;;5074212;28;20080;-59
2022/09/04 11:59:30;;;;;;;3.25;2.30;;;27.80;62.00;;;;;;5074226;28;20075;-59
2022/09/04 12:02:27;;;;;;;3.30;2.10;;;27.80;62.10;;;;;;5031696;28;20050;-59
2022/09/04 12:05:39;;;;;;;6.53;2.22;;;28.10;56.10;;;;;;5031816;28;20088;-59
2022/09/04 12:08:25;;;;;;;2.85;2.00;;;28.10;56.00;;;;;;5031755;28;20075;-59
2022/09/04 12:11:08;;;;;;;4.95;2.03;;;28.20;56.50;;;;;;5031805;28;20049;-59
2022/09/04 12:13:45;;;;;;;3.72;2.00;;;28.40;55.90;;;;;;5031458;28;20106;-60
2022/09/04 12:16:49;;;;;;;4.38;1.90;;;28.50;55.60;;;;;;5031626;28;20678;-60
2022/09/04 12:19:41;;;;;;;3.45;1.95;;;27.90;62.20;;;;;;5031642;28;20053;-59
2022/09/04 12:22:49;;;;;;;4.85;1.98;;;28.80;56.00;;;;;;5031629;28;20041;-58
2022/09/04 12:25:40;;;;;;;3.20;2.00;;;28.90;55.30;;;;;;5031469;28;20489;-59
2022/09/04 12:28:38;;;;;;;4.07;2.05;;;29.00;54.90;;;;;;5031240;28;20045;-60
2022/09/04 12:31:13;;;;;;;3.08;2.35;;;29.20;54.90;;;;;;5031366;28;20393;-61
2022/09/04 12:33:47;;;;;;;3.17;2.08;;;29.20;54.20;;;;;;5014757;28;20049;-59
2022/09/04 12:36:27;;;;;;;3.50;2.10;;;29.00;53.90;;;;;;5031287;28;20056;-60
2022/09/04 12:39:24;;;;;;;4.72;2.22;;;28.80;54.30;;;;;;5050825;28;20067;-61
2022/09/04 12:42:05;;;;;;;4.75;2.25;;;28.80;54.70;;;;;;5072101;28;20041;-60
2022/09/04 12:44:37;;;;;;;3.78;2.13;;;28.90;54.40;;;;;;5072154;28;20418;-59
2022/09/04 12:47:39;;;;;;;3.22;1.90;;;28.90;54.40;;;;;;5073009;28;20052;-60
2022/09/04 12:50:08;;;;;;;4.97;2.15;;;29.00;53.70;;;;;;5071072;28;20048;-58
2022/09/04 12:52:58;;;;;;;5.55;2.10;;;29.00;54.40;;;;;;5072707;28;20086;-59
2022/09/04 12:55:44;;;;;;;3.35;2.00;;;29.00;53.90;;;;;;5052959;28;20477;-59
2022/09/04 12:58:36;;;;;;;6.10;2.20;;;28.80;54.10;;;;;;5051988;28;20048;-59
2022/09/04 13:01:40;;;;;;;7.63;2.20;;;28.80;54.50;;;;;;5052654;28;20047;-58
2022/09/04 13:04:26;;;;;;;4.13;2.08;;;28.90;54.40;;;;;;5051399;28;20057;-58
2022/09/04 13:07:14;;;;;;;2.35;2.10;;;28.90;54.50;;;;;;5053173;28;20049;-59
2022/09/04 13:09:43;;;;;;;2.45;1.85;;;29.10;54.40;;;;;;5052693;28;20460;-60
2022/09/04 13:12:32;;;;;;;6.90;1.95;;;29.40;59.20;;;;;;5052869;28;20127;-59
2022/09/04 13:15:34;;;;;;;2.83;2.00;;;29.50;53.80;;;;;;5053127;28;20033;-58
2022/09/04 13:18:21;;;;;;;3.92;2.20;;;29.70;53.80;;;;;;5053106;28;20032;-58
2022/09/04 13:20:55;;;;;;;3.53;2.25;;;29.70;53.20;;;;;;5052840;28;20037;-59
2022/09/04 13:24:07;;;;;;;3.35;2.10;;;32.10;54.90;;;;;;5052911;28;20122;-63
2022/09/04 13:26:45;;;;;;;3.67;2.20;;;29.60;53.40;;;;;;5052974;28;20045;-64
2022/09/04 13:29:39;;;;;;;3.72;2.17;;;29.70;53.10;;;;;;5051694;28;20045;-63
2022/09/04 13:32:32;;;;;;;2.63;2.00;;;29.70;52.80;;;;;;5052874;28;20047;-64
2022/09/04 13:35:20;;;;;;;4.25;2.10;;;29.70;52.70;;;;;;5052871;28;20045;-63
2022/09/04 13:37:59;;;;;;;3.65;2.00;;;29.70;52.90;;;;;;5052634;28;20493;-63
2022/09/04 13:40:53;;;;;;;2.33;1.90;;;29.80;53.30;;;;;;5053119;28;20048;-62
2022/09/04 13:43:31;;;;;;;3.17;2.20;;;29.90;52.90;;;;;;5052733;28;20461;-61
2022/09/04 13:46:07;;;;;;;3.40;2.00;;;30.10;53.00;;;;;;5052710;28;20041;-64
2022/09/04 13:48:32;;;;;;;2.45;2.00;;;30.30;52.60;;;;;;5052791;28;20507;-64
2022/09/04 13:51:07;;;;;;;3.50;2.10;;;30.40;52.40;;;;;;5054371;28;20033;-64
2022/09/04 13:53:50;;;;;;;5.30;2.08;;;30.50;52.10;;;;;;5055139;28;20396;-60
2022/09/04 13:56:25;;;;;;;5.95;2.03;;;30.50;52.00;;;;;;5055387;28;20041;-63
2022/09/04 13:58:51;;;;;;;;;;;30.60;51.90;;;;;;5057214;28;20106;-63
2022/09/04 14:01:22;;;;;;;4.32;2.10;;;30.40;55.90;;;;;;5056351;28;19917;-63
2022/09/04 14:03:58;;;;;;;5.72;2.33;;;30.50;51.80;;;;;;5056270;28;20041;-63
2022/09/04 14:06:26;;;;;;;4.63;2.17;;;30.50;51.60;;;;;;5056373;28;20451;-61
2022/09/04 14:08:54;;;;;;;4.55;2.13;;;30.60;51.60;;;;;;5054871;28;20052;-61
2022/09/04 14:11:47;;;;;;;3.47;2.15;;;30.50;51.60;;;;;;5056215;28;20044;-63
2022/09/04 14:14:33;;;;;;;5.05;2.15;;;30.10;51.50;;;;;;5070612;28;20491;-66
2022/09/04 14:16:59;;;;;;;4.30;1.90;;;30.00;52.00;;;;;;5076496;28;20052;-67
2022/09/04 14:19:53;;;;;;;7.43;2.08;;;29.90;52.20;;;;;;5076311;28;20480;-67
2022/09/04 14:22:27;;;;;;;4.47;2.08;;;30.00;52.30;;;;;;5076050;28;20559;-67
2022/09/04 14:25:18;;;;;;;2.72;2.00;;;30.00;52.30;;;;;;5076200;28;20063;-67
2022/09/04 14:27:55;;;;;;;7.13;2.13;;;29.90;52.30;;;;;;5074813;28;20040;-66
2022/09/04 14:30:21;;;;;;;4.18;2.22;;;29.80;53.00;;;;;;5075902;28;20093;-63